Time;durP1;ratioP1;P1;durP2;ratioP2;P2;SDS_P1;SDS_P2;PMS_P1;PMS_P2;Temp;Humidity;BMP_temperature;BMP_pressure;BME280_temperature;BME280_humidity;BME280_pressure;Samples;Min_cycle;Max_cycle;Signal;HPM_P1;HPM_P2
2023/05/16 00:00:24;;;;;;;3.90;2.30;;;;;;;;;;107668;282;42905;-36
2023/05/16 00:03:19;;;;;;;4.00;2.40;;;;;;;;;;107693;282;43481;-36
2023/05/16 00:05:54;;;;;;;4.30;2.40;;;;;;;;;;107730;281;38840;-35
2023/05/16 00:08:29;;;;;;;4.60;2.50;;;;;;;;;;107543;282;175455;-36
2023/05/16 00:11:03;;;;;;;4.40;2.50;;;;;;;;;;107679;281;44355;-36
2023/05/16 00:13:37;;;;;;;4.30;2.30;;;;;;;;;;107632;282;43346;-36
2023/05/16 00:16:13;;;;;;;4.20;2.30;;;;;;;;;;107682;273;38944;-38
2023/05/16 00:18:48;;;;;;;3.90;2.30;;;;;;;;;;107693;282;39704;-37
2023/05/16 00:21:22;;;;;;;4.00;2.10;;;;;;;;;;107681;282;44023;-37
2023/05/16 00:23:58;;;;;;;4.10;2.40;;;;;;;;;;107669;273;42159;-36
2023/05/16 00:26:32;;;;;;;4.10;2.40;;;;;;;;;;107677;273;38795;-35
2023/05/16 00:29:06;;;;;;;4.30;2.30;;;;;;;;;;107686;282;40908;-36
2023/05/16 00:31:39;;;;;;;4.20;2.30;;;;;;;;;;107668;282;44035;-35
2023/05/16 00:34:13;;;;;;;4.00;2.40;;;;;;;;;;107695;283;43301;-35
2023/05/16 00:36:46;;;;;;;4.50;2.50;;;;;;;;;;107649;278;40125;-35
2023/05/16 00:39:21;;;;;;;4.40;2.10;;;;;;;;;;107611;282;39747;-34
2023/05/16 00:41:57;;;;;;;4.60;2.40;;;;;;;;;;107704;282;42667;-34
2023/05/16 00:44:30;;;;;;;4.00;2.30;;;;;;;;;;107676;275;42150;-35
2023/05/16 00:47:04;;;;;;;4.20;2.40;;;;;;;;;;107683;281;39804;-36
2023/05/16 00:49:38;;;;;;;4.00;2.30;;;;;;;;;;107686;275;40868;-36
2023/05/16 00:52:16;;;;;;;3.80;2.10;;;;;;;;;;107699;273;43384;-35
2023/05/16 00:54:51;;;;;;;4.10;2.20;;;;;;;;;;107691;282;42433;-34
2023/05/16 00:57:25;;;;;;;3.80;2.10;;;;;;;;;;107759;282;38786;-34
2023/05/16 00:59:59;;;;;;;4.00;2.30;;;;;;;;;;107659;282;39782;-34
2023/05/16 01:02:34;;;;;;;4.90;2.30;;;;;;;;;;107573;282;175445;-35
2023/05/16 01:05:10;;;;;;;4.30;2.30;;;;;;;;;;107737;281;42155;-35
2023/05/16 01:07:47;;;;;;;4.00;2.30;;;;;;;;;;107678;282;38936;-35
2023/05/16 01:10:21;;;;;;;3.80;2.10;;;;;;;;;;107670;273;39755;-34
2023/05/16 01:13:15;;;;;;;4.60;2.20;;;;;;;;;;107691;282;42892;-35
2023/05/16 01:15:56;;;;;;;3.80;2.10;;;;;;;;;;107268;281;562879;-36
2023/05/16 01:18:43;;;;;;;4.10;2.40;;;;;;;;;;107753;279;40052;-37
2023/05/16 01:21:33;;;;;;;4.30;2.20;;;;;;;;;;107620;273;39882;-37
2023/05/16 01:24:20;;;;;;;4.00;2.20;;;;;;;;;;107751;282;42877;-37
2023/05/16 01:26:56;;;;;;;3.60;2.10;;;;;;;;;;107753;273;42177;-37
2023/05/16 01:29:29;;;;;;;4.10;2.40;;;;;;;;;;107766;273;39156;-37
2023/05/16 01:32:03;;;;;;;4.20;2.40;;;;;;;;;;107729;282;40928;-35
2023/05/16 01:34:38;;;;;;;4.10;2.30;;;;;;;;;;107787;273;44079;-35
2023/05/16 01:37:21;;;;;;;4.50;2.30;;;;;;;;;;107799;273;43304;-37
2023/05/16 01:39:59;;;;;;;3.90;2.20;;;;;;;;;;107783;273;39899;-38
2023/05/16 01:42:37;;;;;;;4.20;2.20;;;;;;;;;;107762;281;46688;-38
2023/05/16 01:45:17;;;;;;;4.20;2.30;;;;;;;;;;107738;273;42997;-38
2023/05/16 01:48:01;;;;;;;3.80;2.10;;;;;;;;;;107775;282;42173;-38
2023/05/16 01:50:40;;;;;;;4.10;2.50;;;;;;;;;;107689;283;38821;-38
2023/05/16 01:53:20;;;;;;;4.40;2.60;;;;;;;;;;107700;283;39451;-37
2023/05/16 01:55:58;;;;;;;5.00;2.80;;;;;;;;;;107699;287;42849;-37
2023/05/16 01:58:35;;;;;;;4.20;2.60;;;;;;;;;;107721;283;42260;-37
2023/05/16 02:01:13;;;;;;;4.10;2.40;;;;;;;;;;107678;276;40193;-37
2023/05/16 02:03:46;;;;;;;4.30;2.60;;;;;;;;;;107731;276;39709;-37
2023/05/16 02:06:20;;;;;;;4.40;2.50;;;;;;;;;;107697;283;43243;-37
2023/05/16 02:08:54;;;;;;;4.30;2.50;;;;;;;;;;107697;275;43306;-37
2023/05/16 02:11:28;;;;;;;4.10;2.50;;;;;;;;;;107564;276;175514;-37
2023/05/16 02:14:01;;;;;;;4.40;2.80;;;;;;;;;;107721;275;39904;-37
2023/05/16 02:16:37;;;;;;;4.20;2.80;;;;;;;;;;107714;276;43928;-37
2023/05/16 02:19:11;;;;;;;4.10;2.90;;;;;;;;;;107714;283;43299;-37
2023/05/16 02:21:46;;;;;;;4.40;2.80;;;;;;;;;;107661;283;38809;-37
2023/05/16 02:24:21;;;;;;;4.30;2.80;;;;;;;;;;107676;276;39920;-37
2023/05/16 02:26:56;;;;;;;4.50;3.00;;;;;;;;;;107700;283;44063;-37
2023/05/16 02:29:30;;;;;;;4.80;2.80;;;;;;;;;;107691;283;42142;-37
2023/05/16 02:32:05;;;;;;;4.50;2.70;;;;;;;;;;107674;276;38830;-37
2023/05/16 02:34:39;;;;;;;4.40;2.70;;;;;;;;;;107701;276;39721;-37
2023/05/16 02:37:14;;;;;;;4.10;2.70;;;;;;;;;;107695;283;42880;-37
2023/05/16 02:39:49;;;;;;;4.00;2.80;;;;;;;;;;107692;276;42166;-37
2023/05/16 02:42:24;;;;;;;4.30;2.70;;;;;;;;;;107670;276;38865;-37
2023/05/16 02:45:01;;;;;;;4.40;3.00;;;;;;;;;;107701;283;39751;-37
2023/05/16 02:47:36;;;;;;;4.50;2.90;;;;;;;;;;107695;283;44018;-37
2023/05/16 02:50:15;;;;;;;4.50;2.90;;;;;;;;;;107695;283;43312;-37
2023/05/16 02:52:51;;;;;;;;;;;;;;;;;;107716;283;38825;-37
2023/05/16 02:55:24;;;;;;;4.50;3.10;;;;;;;;;;107726;283;40910;-37
2023/05/16 02:58:00;;;;;;;4.30;3.00;;;;;;;;;;107691;283;44005;-37
2023/05/16 03:00:34;;;;;;;4.50;2.80;;;;;;;;;;107714;283;42207;-37
2023/05/16 03:03:07;;;;;;;4.20;2.80;;;;;;;;;;107680;275;39405;-37
2023/05/16 03:05:43;;;;;;;4.70;2.70;;;;;;;;;;107703;275;40846;-37
2023/05/16 03:08:17;;;;;;;4.60;3.00;;;;;;;;;;107711;283;42894;-36
2023/05/16 03:10:50;;;;;;;4.80;3.00;;;;;;;;;;107669;283;42185;-36
2023/05/16 03:13:25;;;;;;;4.60;3.00;;;;;;;;;;107659;276;39941;-36
2023/05/16 03:15:59;;;;;;;4.30;2.90;;;;;;;;;;107689;283;40903;-36
2023/05/16 03:18:32;;;;;;;4.30;3.00;;;;;;;;;;107673;275;42942;-36
2023/05/16 03:21:06;;;;;;;4.30;3.00;;;;;;;;;;107696;283;43457;-36
2023/05/16 03:23:39;;;;;;;4.30;2.90;;;;;;;;;;107695;283;38903;-36
2023/05/16 03:26:12;;;;;;;4.50;2.80;;;;;;;;;;107695;275;39459;-36
2023/05/16 03:28:46;;;;;;;4.10;2.70;;;;;;;;;;107694;283;42982;-36
2023/05/16 03:31:21;;;;;;;4.20;2.90;;;;;;;;;;107565;275;174514;-36
2023/05/16 03:34:00;;;;;;;4.20;2.90;;;;;;;;;;107674;279;39988;-37
2023/05/16 03:36:36;;;;;;;4.50;2.80;;;;;;;;;;107569;283;175599;-37
2023/05/16 03:39:10;;;;;;;4.40;2.90;;;;;;;;;;107735;283;42848;-35
2023/05/16 03:41:48;;;;;;;4.30;2.80;;;;;;;;;;107686;275;42347;-35
2023/05/16 03:44:22;;;;;;;4.00;2.90;;;;;;;;;;107663;283;38783;-35
2023/05/16 03:46:55;;;;;;;4.50;2.60;;;;;;;;;;107691;283;39478;-35
2023/05/16 03:49:30;;;;;;;4.90;3.00;;;;;;;;;;107687;276;42862;-35
2023/05/16 03:52:03;;;;;;;4.20;2.90;;;;;;;;;;107681;283;42187;-35
2023/05/16 03:54:37;;;;;;;4.30;3.10;;;;;;;;;;107683;283;38913;-35
2023/05/16 03:57:11;;;;;;;4.40;3.00;;;;;;;;;;107697;275;39728;-37
2023/05/16 03:59:45;;;;;;;4.20;3.00;;;;;;;;;;107652;275;42881;-37
2023/05/16 04:02:18;;;;;;;4.30;2.80;;;;;;;;;;107671;283;42294;-37
2023/05/16 04:04:54;;;;;;;4.20;2.90;;;;;;;;;;107653;283;38569;-37
2023/05/16 04:07:28;;;;;;;4.70;3.00;;;;;;;;;;107641;276;39820;-37
2023/05/16 04:10:02;;;;;;;4.30;2.90;;;;;;;;;;107689;275;42896;-37
2023/05/16 04:12:39;;;;;;;4.40;3.20;;;;;;;;;;107715;276;42404;-37
2023/05/16 04:15:13;;;;;;;4.20;2.80;;;;;;;;;;107648;276;38552;-37
2023/05/16 04:17:46;;;;;;;4.20;3.00;;;;;;;;;;107718;283;39734;-37
2023/05/16 04:20:20;;;;;;;4.30;2.70;;;;;;;;;;107545;283;175592;-37
2023/05/16 04:22:55;;;;;;;4.20;2.90;;;;;;;;;;107679;283;42309;-37
2023/05/16 04:25:28;;;;;;;4.10;2.80;;;;;;;;;;107666;283;38785;-37
2023/05/16 04:28:01;;;;;;;4.50;3.10;;;;;;;;;;107668;276;39762;-37
2023/05/16 04:30:35;;;;;;;4.30;2.90;;;;;;;;;;107672;276;43003;-37
2023/05/16 04:33:08;;;;;;;4.20;3.00;;;;;;;;;;107677;280;43186;-37
2023/05/16 04:35:41;;;;;;;4.30;3.00;;;;;;;;;;107651;282;38788;-37
2023/05/16 04:38:15;;;;;;;5.10;2.90;;;;;;;;;;107673;275;39712;-37
2023/05/16 04:40:49;;;;;;;4.50;2.90;;;;;;;;;;107674;283;42888;-37
2023/05/16 04:43:22;;;;;;;4.40;2.90;;;;;;;;;;107675;283;42181;-37
2023/05/16 04:45:57;;;;;;;4.20;2.90;;;;;;;;;;107635;275;38787;-37
2023/05/16 04:48:31;;;;;;;4.80;3.10;;;;;;;;;;107647;283;40878;-37
2023/05/16 04:51:05;;;;;;;4.30;3.00;;;;;;;;;;107660;279;42960;-37
2023/05/16 04:53:38;;;;;;;4.60;3.20;;;;;;;;;;107700;283;42539;-37
2023/05/16 04:56:12;;;;;;;4.80;2.90;;;;;;;;;;107682;283;38927;-37
2023/05/16 04:58:45;;;;;;;4.70;3.00;;;;;;;;;;107681;283;40847;-37
2023/05/16 05:01:18;;;;;;;4.90;3.00;;;;;;;;;;107670;283;42750;-38
2023/05/16 05:03:52;;;;;;;4.30;3.00;;;;;;;;;;107644;275;43548;-39
2023/05/16 05:06:25;;;;;;;4.30;3.10;;;;;;;;;;107640;275;38829;-38
2023/05/16 05:08:58;;;;;;;4.70;3.00;;;;;;;;;;107641;279;41014;-38
2023/05/16 05:11:32;;;;;;;4.80;3.40;;;;;;;;;;107515;275;175634;-37
2023/05/16 05:14:06;;;;;;;4.80;3.30;;;;;;;;;;107652;279;42173;-37
2023/05/16 05:16:40;;;;;;;4.10;3.00;;;;;;;;;;107634;275;39963;-37
2023/05/16 05:19:13;;;;;;;4.40;2.90;;;;;;;;;;107629;283;39819;-38
2023/05/16 05:21:46;;;;;;;4.80;3.20;;;;;;;;;;107543;283;175618;-37
2023/05/16 05:24:19;;;;;;;4.50;3.30;;;;;;;;;;107662;275;43351;-37
2023/05/16 05:26:54;;;;;;;4.80;3.20;;;;;;;;;;107641;275;38986;-38
2023/05/16 05:29:28;;;;;;;4.60;3.30;;;;;;;;;;107655;275;39756;-38
2023/05/16 05:32:01;;;;;;;4.90;3.00;;;;;;;;;;107663;283;43002;-37
2023/05/16 05:34:35;;;;;;;4.60;3.20;;;;;;;;;;107573;275;175653;-37
2023/05/16 05:37:09;;;;;;;4.60;3.20;;;;;;;;;;107632;283;39959;-37
2023/05/16 05:39:42;;;;;;;4.60;3.30;;;;;;;;;;107692;275;39998;-37
2023/05/16 05:42:15;;;;;;;4.80;3.40;;;;;;;;;;107664;283;42863;-37
2023/05/16 05:44:49;;;;;;;5.20;3.60;;;;;;;;;;107665;283;42619;-37
2023/05/16 05:47:22;;;;;;;4.50;3.30;;;;;;;;;;107648;275;46110;-37
2023/05/16 05:49:58;;;;;;;4.80;3.40;;;;;;;;;;107580;282;175611;-37
2023/05/16 05:52:31;;;;;;;4.60;3.40;;;;;;;;;;107738;282;42898;-38
2023/05/16 05:55:05;;;;;;;5.10;3.60;;;;;;;;;;107727;282;43202;-37
2023/05/16 05:57:40;;;;;;;4.60;3.50;;;;;;;;;;107673;282;44484;-38
2023/05/16 06:00:16;;;;;;;5.00;3.60;;;;;;;;;;107742;275;39925;-38
2023/05/16 06:02:51;;;;;;;4.90;3.70;;;;;;;;;;107751;275;42894;-37
2023/05/16 06:05:24;;;;;;;4.40;3.60;;;;;;;;;;107746;282;42191;-38
2023/05/16 06:07:58;;;;;;;5.80;3.90;;;;;;;;;;107711;275;44376;-38
2023/05/16 06:10:33;;;;;;;4.60;3.60;;;;;;;;;;107639;275;176205;-36
2023/05/16 06:13:06;;;;;;;5.00;3.90;;;;;;;;;;107782;282;42630;-36
2023/05/16 06:15:39;;;;;;;5.40;4.00;;;;;;;;;;107777;275;42773;-36
2023/05/16 06:18:12;;;;;;;4.80;3.90;;;;;;;;;;107603;275;175611;-36
2023/05/16 06:20:46;;;;;;;5.20;4.30;;;;;;;;;;107774;282;39825;-36
2023/05/16 06:23:20;;;;;;;5.50;4.00;;;;;;;;;;107633;277;42971;-36
2023/05/16 06:25:54;;;;;;;6.60;4.10;;;;;;;;;;107798;282;43697;-36
2023/05/16 06:28:27;;;;;;;5.20;3.90;;;;;;;;;;107747;282;45681;-36
2023/05/16 06:31:02;;;;;;;5.40;4.10;;;;;;;;;;107660;283;175621;-36
2023/05/16 06:33:36;;;;;;;5.50;4.30;;;;;;;;;;107810;282;44133;-36
2023/05/16 06:36:10;;;;;;;6.00;4.20;;;;;;;;;;107790;282;42549;-36
2023/05/16 06:38:44;;;;;;;5.30;4.40;;;;;;;;;;107919;275;44685;-36
2023/05/16 06:41:17;;;;;;;5.50;4.20;;;;;;;;;;107815;282;39714;-36
2023/05/16 06:43:50;;;;;;;5.90;4.20;;;;;;;;;;107796;280;43304;-36
2023/05/16 06:46:23;;;;;;;5.30;4.40;;;;;;;;;;107800;282;42206;-36
2023/05/16 06:48:58;;;;;;;5.50;4.40;;;;;;;;;;107780;275;45962;-36
2023/05/16 06:51:35;;;;;;;6.00;4.60;;;;;;;;;;107706;283;40027;-36
2023/05/16 06:54:15;;;;;;;5.10;4.10;;;;;;;;;;107583;276;42919;-36
2023/05/16 06:56:48;;;;;;;6.50;4.60;;;;;;;;;;107719;283;43747;-36
2023/05/16 06:59:22;;;;;;;6.00;4.60;;;;;;;;;;107706;283;45981;-36
2023/05/16 07:01:57;;;;;;;6.30;4.60;;;;;;;;;;107674;276;39727;-36
2023/05/16 07:04:32;;;;;;;5.50;4.30;;;;;;;;;;107718;283;42881;-36
2023/05/16 07:07:08;;;;;;;5.50;4.20;;;;;;;;;;107646;276;42360;-36
2023/05/16 07:09:41;;;;;;;6.30;5.10;;;;;;;;;;107727;283;44855;-36
2023/05/16 07:12:17;;;;;;;6.10;5.00;;;;;;;;;;107684;276;40890;-36
2023/05/16 07:14:52;;;;;;;5.40;4.70;;;;;;;;;;107576;276;42853;-36
2023/05/16 07:17:26;;;;;;;6.30;5.00;;;;;;;;;;107662;283;43656;-36
2023/05/16 07:20:00;;;;;;;6.50;5.10;;;;;;;;;;107677;283;45956;-36
2023/05/16 07:22:38;;;;;;;5.90;4.80;;;;;;;;;;107670;283;40018;-36
2023/05/16 07:25:13;;;;;;;6.10;5.40;;;;;;;;;;107673;283;44926;-36
2023/05/16 07:27:48;;;;;;;6.50;5.40;;;;;;;;;;107738;283;43435;-36
2023/05/16 07:30:24;;;;;;;6.80;5.10;;;;;;;;;;107710;283;40150;-36
2023/05/16 07:32:58;;;;;;;6.80;5.10;;;;;;;;;;107695;283;39838;-36
2023/05/16 07:35:33;;;;;;;6.30;5.50;;;;;;;;;;107695;283;43029;-36
2023/05/16 07:38:08;;;;;;;6.30;5.70;;;;;;;;;;107631;283;42250;-36
2023/05/16 07:40:44;;;;;;;6.40;5.60;;;;;;;;;;107721;276;39959;-36
2023/05/16 07:43:19;;;;;;;6.90;5.40;;;;;;;;;;107689;283;39873;-36
2023/05/16 07:45:52;;;;;;;6.60;5.60;;;;;;;;;;107668;284;42843;-36
2023/05/16 07:48:26;;;;;;;7.20;5.60;;;;;;;;;;107672;283;42177;-36
2023/05/16 07:51:02;;;;;;;6.00;5.20;;;;;;;;;;107730;275;39912;-36
2023/05/16 07:53:35;;;;;;;6.00;4.90;;;;;;;;;;107747;283;39719;-36
2023/05/16 07:56:10;;;;;;;7.00;5.30;;;;;;;;;;107638;283;42969;-36
2023/05/16 07:58:44;;;;;;;6.70;5.40;;;;;;;;;;107727;282;43640;-36
2023/05/16 08:01:17;;;;;;;5.70;5.10;;;;;;;;;;107092;282;894939;-38
2023/05/16 08:03:52;;;;;;;5.60;4.90;;;;;;;;;;107772;282;40839;-36
2023/05/16 08:06:28;;;;;;;6.00;4.70;;;;;;;;;;107735;275;42849;-36
2023/05/16 08:09:02;;;;;;;6.00;4.50;;;;;;;;;;107655;282;42204;-36
2023/05/16 08:11:44;;;;;;;5.50;4.60;;;;;;;;;;107777;275;38850;-36
2023/05/16 08:14:19;;;;;;;6.40;4.50;;;;;;;;;;107752;282;39870;-37
2023/05/16 08:16:52;;;;;;;5.80;4.20;;;;;;;;;;107778;282;42965;-35
2023/05/16 08:19:28;;;;;;;6.00;4.60;;;;;;;;;;107607;279;175691;-35
2023/05/16 08:22:03;;;;;;;6.50;4.30;;;;;;;;;;107758;282;39026;-34
2023/05/16 08:24:42;;;;;;;5.00;4.00;;;;;;;;;;107788;282;40010;-33
2023/05/16 08:27:15;;;;;;;4.90;3.90;;;;;;;;;;107770;282;43013;-33
2023/05/16 08:29:51;;;;;;;5.50;3.80;;;;;;;;;;107734;275;42177;-34
2023/05/16 08:32:28;;;;;;;5.00;3.80;;;;;;;;;;107763;282;38918;-34
2023/05/16 08:35:05;;;;;;;5.00;3.90;;;;;;;;;;107768;282;39644;-35
2023/05/16 08:37:39;;;;;;;5.00;3.80;;;;;;;;;;107739;282;43009;-35
2023/05/16 08:40:16;;;;;;;5.40;3.80;;;;;;;;;;107681;283;42282;-35
2023/05/16 08:42:51;;;;;;;4.50;3.50;;;;;;;;;;107744;282;39143;-36
2023/05/16 08:45:25;;;;;;;4.80;3.60;;;;;;;;;;107717;275;39437;-34
2023/05/16 08:48:02;;;;;;;4.70;3.20;;;;;;;;;;107757;282;44174;-33
2023/05/16 08:50:37;;;;;;;4.30;3.20;;;;;;;;;;107686;276;42568;-34
2023/05/16 08:53:14;;;;;;;4.70;3.40;;;;;;;;;;107692;283;39011;-36
2023/05/16 08:55:50;;;;;;;4.30;3.30;;;;;;;;;;107694;283;39835;-35
2023/05/16 08:58:27;;;;;;;4.80;3.30;;;;;;;;;;107677;283;42851;-34
2023/05/16 09:01:03;;;;;;;4.30;3.00;;;;;;;;;;107665;283;42275;-34
2023/05/16 09:03:38;;;;;;;4.30;3.00;;;;;;;;;;107665;283;38620;-35
2023/05/16 09:06:12;;;;;;;4.70;3.40;;;;;;;;;;107706;282;40063;-34
2023/05/16 09:08:46;;;;;;;4.00;2.80;;;;;;;;;;107684;282;44154;-33
2023/05/16 09:11:21;;;;;;;4.60;3.00;;;;;;;;;;107656;282;42209;-34
2023/05/16 09:13:56;;;;;;;4.30;2.90;;;;;;;;;;107704;284;38809;-34
2023/05/16 09:16:30;;;;;;;4.10;2.90;;;;;;;;;;107247;281;473598;-35
2023/05/16 09:19:04;;;;;;;3.80;2.70;;;;;;;;;;107719;275;44240;-34
2023/05/16 09:21:42;;;;;;;4.10;2.60;;;;;;;;;;107586;282;175528;-35
2023/05/16 09:24:17;;;;;;;4.20;2.80;;;;;;;;;;107730;282;38783;-36
2023/05/16 09:26:51;;;;;;;4.20;2.90;;;;;;;;;;107736;282;39909;-35
2023/05/16 09:29:27;;;;;;;4.20;2.90;;;;;;;;;;107765;282;43022;-36
2023/05/16 09:32:11;;;;;;;4.40;2.60;;;;;;;;;;107644;282;44362;-35
2023/05/16 09:34:48;;;;;;;4.00;2.70;;;;;;;;;;107738;275;38786;-36
2023/05/16 09:37:22;;;;;;;4.40;2.70;;;;;;;;;;107727;282;41174;-34
2023/05/16 09:39:56;;;;;;;4.00;2.50;;;;;;;;;;107704;283;43079;-36
2023/05/16 09:42:30;;;;;;;4.10;2.90;;;;;;;;;;107770;275;42167;-37
2023/05/16 09:45:05;;;;;;;4.10;2.50;;;;;;;;;;107748;282;38808;-36
2023/05/16 09:47:45;;;;;;;4.00;2.40;;;;;;;;;;107742;275;39782;-38
2023/05/16 09:50:20;;;;;;;4.00;2.50;;;;;;;;;;107734;275;42621;-37
2023/05/16 09:52:54;;;;;;;3.50;2.30;;;;;;;;;;107823;282;49726;-36
2023/05/16 09:55:28;;;;;;;4.10;2.30;;;;;;;;;;106952;263;176186;-36
2023/05/16 09:58:03;;;;;;;3.60;2.20;;;;;;;;;;107353;288;40916;-35
2023/05/16 10:00:43;;;;;;;3.80;2.30;;;;;;;;;;107363;287;43018;-35
2023/05/16 10:03:19;;;;;;;4.00;2.60;;;;;;;;;;107309;285;49133;-36
2023/05/16 10:05:53;;;;;;;3.70;2.30;;;;;;;;;;107353;287;38843;-37
2023/05/16 10:08:30;;;;;;;3.80;2.40;;;;;;;;;;107423;284;39596;-35
2023/05/16 10:11:05;;;;;;;4.00;2.10;;;;;;;;;;107344;285;42843;-35
2023/05/16 10:13:39;;;;;;;3.90;2.20;;;;;;;;;;107447;285;50290;-35
2023/05/16 10:16:15;;;;;;;3.50;2.30;;;;;;;;;;107349;287;40098;-35
2023/05/16 10:18:48;;;;;;;3.60;2.30;;;;;;;;;;107358;285;40791;-35
2023/05/16 10:21:23;;;;;;;3.80;2.30;;;;;;;;;;107449;284;43299;-35
2023/05/16 10:24:01;;;;;;;3.70;2.10;;;;;;;;;;106669;285;891227;-35
2023/05/16 10:26:35;;;;;;;3.80;2.30;;;;;;;;;;107402;285;38778;-33
2023/05/16 10:29:09;;;;;;;4.00;2.30;;;;;;;;;;107442;284;39500;-36
2023/05/16 10:31:44;;;;;;;3.70;2.20;;;;;;;;;;107374;283;43994;-35
2023/05/16 10:34:19;;;;;;;3.70;2.30;;;;;;;;;;107364;287;47913;-34
2023/05/16 10:36:54;;;;;;;3.10;1.80;;;;;;;;;;107475;287;38843;-35
2023/05/16 10:39:27;;;;;;;3.50;2.20;;;;;;;;;;107240;285;175908;-34
2023/05/16 10:42:01;;;;;;;3.60;2.00;;;;;;;;;;107387;287;44057;-35
2023/05/16 10:44:37;;;;;;;3.70;2.10;;;;;;;;;;107333;285;50266;-35
2023/05/16 10:47:10;;;;;;;4.00;2.20;;;;;;;;;;107483;287;39961;-34
2023/05/16 10:49:45;;;;;;;3.80;2.10;;;;;;;;;;107486;284;39835;-35
2023/05/16 10:52:19;;;;;;;3.90;2.10;;;;;;;;;;107406;284;44072;-34
2023/05/16 10:54:55;;;;;;;3.90;2.00;;;;;;;;;;107316;286;48612;-35
2023/05/16 10:57:30;;;;;;;3.90;2.00;;;;;;;;;;107372;287;38756;-34
2023/05/16 11:00:10;;;;;;;3.40;2.10;;;;;;;;;;107352;285;39712;-34
2023/05/16 11:02:44;;;;;;;3.50;1.90;;;;;;;;;;107355;285;42927;-35
2023/05/16 11:05:24;;;;;;;3.40;1.90;;;;;;;;;;107361;285;49420;-35
2023/05/16 11:08:08;;;;;;;3.80;1.90;;;;;;;;;;107428;286;39438;-37
2023/05/16 11:10:41;;;;;;;3.70;1.90;;;;;;;;;;107448;285;39728;-38
2023/05/16 11:13:18;;;;;;;3.70;2.10;;;;;;;;;;107363;285;42894;-35
2023/05/16 11:15:51;;;;;;;3.70;2.00;;;;;;;;;;107419;288;43468;-35
2023/05/16 11:18:26;;;;;;;3.30;1.90;;;;;;;;;;107406;284;38553;-34
2023/05/16 11:21:06;;;;;;;3.10;1.80;;;;;;;;;;107355;285;39723;-34
2023/05/16 11:23:41;;;;;;;4.50;1.90;;;;;;;;;;107364;287;42900;-34
2023/05/16 11:26:14;;;;;;;3.50;1.90;;;;;;;;;;107366;285;43292;-34
2023/05/16 11:28:52;;;;;;;3.40;1.70;;;;;;;;;;107310;285;38819;-34
2023/05/16 11:31:26;;;;;;;3.20;1.80;;;;;;;;;;107298;287;175550;-34
2023/05/16 11:34:00;;;;;;;3.40;1.80;;;;;;;;;;107245;287;196044;-34
2023/05/16 11:36:34;;;;;;;3.30;1.70;;;;;;;;;;107353;285;42316;-34
2023/05/16 11:39:11;;;;;;;3.00;1.70;;;;;;;;;;107378;285;39894;-34
2023/05/16 11:41:44;;;;;;;3.30;1.70;;;;;;;;;;107355;287;39495;-34
2023/05/16 11:44:20;;;;;;;3.30;1.80;;;;;;;;;;107289;285;42959;-34
2023/05/16 11:46:55;;;;;;;3.20;1.80;;;;;;;;;;107357;287;43429;-34
2023/05/16 11:49:30;;;;;;;3.30;1.70;;;;;;;;;;107330;288;38871;-36
2023/05/16 11:52:05;;;;;;;3.30;1.80;;;;;;;;;;107313;285;40904;-36
2023/05/16 11:54:38;;;;;;;3.10;1.80;;;;;;;;;;107286;285;44078;-36
2023/05/16 11:57:12;;;;;;;3.20;1.90;;;;;;;;;;107347;285;41911;-36
2023/05/16 11:59:45;;;;;;;3.30;1.60;;;;;;;;;;107350;285;38836;-36
2023/05/16 12:02:18;;;;;;;3.10;1.80;;;;;;;;;;107362;288;39731;-36
2023/05/16 12:04:52;;;;;;;3.10;1.60;;;;;;;;;;107330;280;42906;-36
2023/05/16 12:07:30;;;;;;;3.00;1.80;;;;;;;;;;107362;285;42398;-36
2023/05/16 12:10:08;;;;;;;3.70;1.70;;;;;;;;;;107372;285;39973;-34
2023/05/16 12:12:50;;;;;;;3.40;1.90;;;;;;;;;;107352;285;39688;-35
2023/05/16 12:15:23;;;;;;;3.10;1.70;;;;;;;;;;107329;287;42874;-34
2023/05/16 12:17:57;;;;;;;2.70;1.50;;;;;;;;;;107240;285;175557;-34
2023/05/16 12:20:31;;;;;;;3.30;1.70;;;;;;;;;;107320;287;39000;-34
2023/05/16 12:23:04;;;;;;;2.90;1.60;;;;;;;;;;107344;285;40833;-34
2023/05/16 12:25:42;;;;;;;2.90;1.70;;;;;;;;;;107394;287;43040;-34
2023/05/16 12:28:17;;;;;;;3.00;1.60;;;;;;;;;;107465;284;42460;-35
2023/05/16 12:30:50;;;;;;;2.90;1.70;;;;;;;;;;107401;286;38972;-34
2023/05/16 12:33:24;;;;;;;4.00;1.90;;;;;;;;;;107395;287;39466;-34
2023/05/16 12:36:00;;;;;;;3.00;1.70;;;;;;;;;;107343;286;43044;-34
2023/05/16 12:38:35;;;;;;;3.00;1.50;;;;;;;;;;107419;286;41896;-34
2023/05/16 12:41:10;;;;;;;3.00;1.60;;;;;;;;;;107367;287;39157;-34
2023/05/16 12:43:43;;;;;;;3.20;1.60;;;;;;;;;;107324;285;39867;-34
2023/05/16 12:46:17;;;;;;;2.90;1.60;;;;;;;;;;107382;286;43001;-34
2023/05/16 12:49:04;;;;;;;3.30;1.60;;;;;;;;;;107465;287;42149;-34
2023/05/16 12:51:38;;;;;;;2.90;1.60;;;;;;;;;;107405;286;38868;-34
2023/05/16 12:54:16;;;;;;;3.00;1.60;;;;;;;;;;107356;287;40086;-34
2023/05/16 12:56:50;;;;;;;3.10;1.80;;;;;;;;;;107343;285;42933;-34
2023/05/16 12:59:27;;;;;;;3.40;1.50;;;;;;;;;;107362;285;42150;-34
2023/05/16 13:02:06;;;;;;;6.70;1.80;;;;;;;;;;107379;285;38959;-36
2023/05/16 13:04:41;;;;;;;3.30;1.90;;;;;;;;;;107452;284;39801;-38
2023/05/16 13:07:16;;;;;;;3.60;1.70;;;;;;;;;;107311;285;42885;-37
2023/05/16 13:09:50;;;;;;;3.30;1.60;;;;;;;;;;107329;285;42271;-38
2023/05/16 13:12:26;;;;;;;3.70;1.80;;;;;;;;;;107359;287;39015;-38
2023/05/16 13:14:59;;;;;;;4.70;2.00;;;;;;;;;;107365;285;39462;-39
2023/05/16 13:17:34;;;;;;;4.10;1.90;;;;;;;;;;107324;280;44102;-39
2023/05/16 13:20:13;;;;;;;3.40;1.70;;;;;;;;;;107319;287;41908;-38
2023/05/16 13:22:48;;;;;;;3.20;1.70;;;;;;;;;;107352;287;38860;-37
2023/05/16 13:25:25;;;;;;;3.40;1.70;;;;;;;;;;107370;287;39890;-36
2023/05/16 13:28:00;;;;;;;3.30;1.70;;;;;;;;;;107321;285;48674;-35
2023/05/16 13:30:35;;;;;;;3.50;1.70;;;;;;;;;;107385;285;42177;-39
2023/05/16 13:33:15;;;;;;;3.30;1.60;;;;;;;;;;107365;289;38787;-39
2023/05/16 13:35:54;;;;;;;3.40;1.80;;;;;;;;;;107321;284;40789;-39
2023/05/16 13:38:27;;;;;;;3.40;1.70;;;;;;;;;;107327;281;49903;-38
2023/05/16 13:41:01;;;;;;;3.30;1.80;;;;;;;;;;107324;285;42206;-39
2023/05/16 13:43:38;;;;;;;4.00;1.80;;;;;;;;;;107219;287;175550;-37
2023/05/16 13:46:14;;;;;;;3.30;1.70;;;;;;;;;;107324;287;39700;-37
2023/05/16 13:48:49;;;;;;;3.30;1.70;;;;;;;;;;107373;287;49186;-36
2023/05/16 13:51:23;;;;;;;3.20;1.60;;;;;;;;;;107326;287;42323;-36
2023/05/16 13:53:57;;;;;;;3.60;1.80;;;;;;;;;;107389;287;38926;-35
2023/05/16 13:56:32;;;;;;;3.10;1.50;;;;;;;;;;107323;285;39745;-35
2023/05/16 13:59:07;;;;;;;3.20;1.80;;;;;;;;;;107338;285;49088;-34
2023/05/16 14:01:46;;;;;;;3.20;1.70;;;;;;;;;;107364;287;42297;-36
2023/05/16 14:04:24;;;;;;;3.10;1.80;;;;;;;;;;107369;285;38727;-37
2023/05/16 14:07:00;;;;;;;3.50;1.80;;;;;;;;;;107327;285;39736;-37
2023/05/16 14:09:38;;;;;;;4.20;1.90;;;;;;;;;;107375;285;42921;-35
2023/05/16 14:12:12;;;;;;;3.70;2.00;;;;;;;;;;107361;285;42257;-34
2023/05/16 14:14:46;;;;;;;3.50;1.80;;;;;;;;;;107372;287;38865;-34
2023/05/16 14:17:21;;;;;;;3.50;2.00;;;;;;;;;;107327;287;40170;-34
2023/05/16 14:19:55;;;;;;;3.60;2.10;;;;;;;;;;107380;286;44132;-34
2023/05/16 14:22:31;;;;;;;3.70;2.00;;;;;;;;;;107369;285;42275;-35
2023/05/16 14:25:07;;;;;;;3.60;1.80;;;;;;;;;;107377;285;38805;-35
2023/05/16 14:27:42;;;;;;;3.40;2.00;;;;;;;;;;107364;287;39517;-34
2023/05/16 14:30:16;;;;;;;3.70;2.20;;;;;;;;;;107403;285;43862;-35
2023/05/16 14:32:51;;;;;;;4.50;2.00;;;;;;;;;;107431;285;43253;-35
2023/05/16 14:35:25;;;;;;;3.40;2.00;;;;;;;;;;107369;285;38843;-36
2023/05/16 14:37:59;;;;;;;3.40;2.00;;;;;;;;;;107355;287;39842;-36
2023/05/16 14:40:34;;;;;;;3.80;2.00;;;;;;;;;;107401;285;42886;-36
2023/05/16 14:43:10;;;;;;;3.50;1.90;;;;;;;;;;107360;283;42146;-35
2023/05/16 14:45:45;;;;;;;3.70;2.10;;;;;;;;;;107403;287;38786;-35
2023/05/16 14:48:21;;;;;;;3.60;1.90;;;;;;;;;;107331;287;39854;-36
2023/05/16 14:50:55;;;;;;;3.90;1.90;;;;;;;;;;107354;292;42917;-36
2023/05/16 14:53:30;;;;;;;3.80;2.00;;;;;;;;;;107361;287;42327;-35
2023/05/16 14:56:04;;;;;;;3.50;2.00;;;;;;;;;;107348;285;40033;-37
2023/05/16 14:58:39;;;;;;;3.70;2.00;;;;;;;;;;107315;285;39737;-37
2023/05/16 15:01:13;;;;;;;3.40;1.90;;;;;;;;;;107354;287;42997;-38
2023/05/16 15:03:47;;;;;;;3.40;2.00;;;;;;;;;;107327;285;42177;-37
2023/05/16 15:06:28;;;;;;;3.50;1.90;;;;;;;;;;107330;285;38825;-35
2023/05/16 15:09:01;;;;;;;3.70;2.10;;;;;;;;;;107263;285;39738;-35
2023/05/16 15:11:34;;;;;;;3.30;2.10;;;;;;;;;;107320;287;44041;-35
2023/05/16 15:14:10;;;;;;;3.50;2.00;;;;;;;;;;107394;284;42239;-35
2023/05/16 15:16:45;;;;;;;3.70;2.00;;;;;;;;;;107375;284;39928;-36
2023/05/16 15:19:21;;;;;;;3.40;2.00;;;;;;;;;;107318;285;40859;-36
2023/05/16 15:21:55;;;;;;;3.30;1.90;;;;;;;;;;107334;285;42987;-35
2023/05/16 15:24:28;;;;;;;3.30;1.90;;;;;;;;;;107368;287;43402;-35
2023/05/16 15:27:03;;;;;;;3.00;1.90;;;;;;;;;;107358;287;39042;-37
2023/05/16 15:29:36;;;;;;;3.60;2.00;;;;;;;;;;107271;287;39833;-37